Time;durP1;ratioP1;P1;durP2;ratioP2;P2;SDS_P1;SDS_P2;PMS_P1;PMS_P2;Temp;Humidity;BMP_temperature;BMP_pressure;BME280_temperature;BME280_humidity;BME280_pressure;Samples;Min_cycle;Max_cycle;Signal;HPM_P1;HPM_P2
2022/08/18 00:00:43;;;;;;;2.15;1.95;;;20.10;82.70;;;;;;6274277;22;20002;-76
2022/08/18 00:03:10;;;;;;;1.70;1.60;;;20.10;82.70;;;;;;6274458;22;20436;-76
2022/08/18 00:05:37;;;;;;;2.03;1.52;;;20.10;82.70;;;;;;6247365;22;20340;-76
2022/08/18 00:08:04;;;;;;;2.00;1.65;;;20.10;82.70;;;;;;6246770;22;20549;-76
2022/08/18 00:10:31;;;;;;;1.90;1.55;;;20.10;82.70;;;;;;6274901;22;20086;-76
2022/08/18 00:12:57;;;;;;;3.33;2.00;;;20.10;82.80;;;;;;6274663;22;20053;-76
2022/08/18 00:15:23;;;;;;;1.90;1.50;;;20.10;82.80;;;;;;6275509;22;20039;-76
2022/08/18 00:17:49;;;;;;;4.40;2.20;;;20.00;82.80;;;;;;6275250;22;20012;-76
2022/08/18 00:20:19;;;;;;;2.70;2.13;;;20.00;83.10;;;;;;6249247;22;20010;-76
2022/08/18 00:22:46;;;;;;;2.40;1.90;;;20.00;82.80;;;;;;6275331;22;20042;-76
2022/08/18 00:25:14;;;;;;;2.67;1.70;;;20.00;82.70;;;;;;6275301;22;20374;-76
2022/08/18 00:27:40;;;;;;;2.20;1.63;;;20.00;82.70;;;;;;6245353;22;20489;-76
2022/08/18 00:30:10;;;;;;;2.40;1.85;;;20.00;82.70;;;;;;6275906;22;20039;-76
2022/08/18 00:32:40;;;;;;;3.03;1.90;;;20.00;82.70;;;;;;6275859;22;20023;-76
2022/08/18 00:35:12;;;;;;;1.98;1.60;;;20.00;82.80;;;;;;6222202;22;20003;-76
2022/08/18 00:37:39;;;;;;;2.53;1.92;;;20.00;82.70;;;;;;6275411;22;20004;-76
2022/08/18 00:40:08;;;;;;;2.53;1.80;;;20.00;82.70;;;;;;6276045;22;20030;-76
2022/08/18 00:42:42;;;;;;;2.03;1.63;;;20.00;82.70;;;;;;6275211;22;20000;-76
2022/08/18 00:45:14;;;;;;;1.75;1.55;;;20.00;82.80;;;;;;6274991;22;20010;-76
2022/08/18 00:47:40;;;;;;;2.40;1.77;;;20.00;82.80;;;;;;6248195;22;20137;-76
2022/08/18 00:50:08;;;;;;;2.38;1.70;;;20.00;82.80;;;;;;6273326;22;20042;-76
2022/08/18 00:52:34;;;;;;;2.42;1.90;;;20.00;82.80;;;;;;6246874;22;20091;-76
2022/08/18 00:55:01;;;;;;;2.85;2.10;;;19.90;82.80;;;;;;6275181;22;20073;-76
2022/08/18 00:57:28;;;;;;;2.58;1.52;;;19.90;82.80;;;;;;6276307;22;20012;-76
2022/08/18 01:00:06;;;;;;;4.43;2.80;;;19.90;82.90;;;;;;6276080;22;20065;-76
2022/08/18 01:02:36;;;;;;;2.75;1.83;;;19.90;82.90;;;;;;6250304;22;20503;-76
2022/08/18 01:05:17;;;;;;;2.60;2.17;;;19.90;83.00;;;;;;6275561;22;20046;-76
2022/08/18 01:07:46;;;;;;;2.35;1.73;;;19.80;83.00;;;;;;6275197;22;20003;-76
2022/08/18 01:10:15;;;;;;;2.25;1.70;;;19.80;83.10;;;;;;6274953;22;20041;-76
2022/08/18 01:12:43;;;;;;;2.00;1.70;;;19.80;83.20;;;;;;6275012;22;20019;-76
2022/08/18 01:15:12;;;;;;;4.40;2.97;;;19.80;83.20;;;;;;6274936;22;20386;-76
2022/08/18 01:23:21;;;;;;;2.55;1.85;;;19.70;83.20;;;;;;6275025;22;20086;-76
2022/08/18 01:26:04;;;;;;;2.15;1.85;;;19.70;83.10;;;;;;6247634;22;20343;-76
2022/08/18 01:28:33;;;;;;;3.50;2.28;;;19.70;83.10;;;;;;6248142;22;20106;-76
2022/08/18 01:31:00;;;;;;;3.42;2.53;;;19.70;83.20;;;;;;6275742;22;20079;-76
2022/08/18 01:33:31;;;;;;;3.22;2.30;;;19.70;83.10;;;;;;6223380;22;20016;-76
2022/08/18 01:36:02;;;;;;;2.60;1.95;;;19.70;83.10;;;;;;6247475;22;20004;-76
2022/08/18 01:38:30;;;;;;;2.58;1.80;;;19.60;83.10;;;;;;6274976;22;20004;-76
2022/08/18 01:40:56;;;;;;;2.17;1.65;;;19.60;83.20;;;;;;6248529;22;20008;-76
2022/08/18 01:43:23;;;;;;;1.65;1.38;;;19.80;83.20;;;;;;6275300;22;20011;-76
2022/08/18 01:45:49;;;;;;;1.92;1.65;;;19.70;83.10;;;;;;6248549;22;20381;-76
2022/08/18 01:48:15;;;;;;;2.03;1.58;;;19.70;83.10;;;;;;6248341;22;20007;-76
2022/08/18 01:50:43;;;;;;;1.80;1.40;;;19.70;83.00;;;;;;6247679;22;20397;-76
2022/08/18 01:53:11;;;;;;;1.92;1.63;;;19.70;83.10;;;;;;6274796;22;20058;-76
2022/08/18 01:55:43;;;;;;;2.13;1.67;;;19.70;83.00;;;;;;6249060;22;20004;-76
2022/08/18 01:58:09;;;;;;;1.52;1.40;;;19.70;83.00;;;;;;6249294;22;20011;-76
2022/08/18 02:00:35;;;;;;;2.22;1.67;;;19.70;83.00;;;;;;6275368;22;20378;-76
2022/08/18 02:03:07;;;;;;;1.63;1.38;;;19.70;83.00;;;;;;6275562;22;20011;-76
2022/08/18 02:05:37;;;;;;;1.23;1.13;;;19.70;83.00;;;;;;6275095;22;20114;-76
2022/08/18 02:08:05;;;;;;;1.85;1.30;;;19.70;83.00;;;;;;6247798;22;20337;-76
2022/08/18 02:10:31;;;;;;;1.83;1.63;;;19.70;83.00;;;;;;6274864;22;20019;-76
2022/08/18 02:12:57;;;;;;;1.38;1.23;;;19.60;83.00;;;;;;6274939;22;20011;-76
2022/08/18 02:15:22;;;;;;;1.50;1.40;;;19.60;83.00;;;;;;6248120;22;20018;-76
2022/08/18 02:17:48;;;;;;;1.42;1.20;;;19.60;83.00;;;;;;6247841;22;20011;-76
2022/08/18 02:20:17;;;;;;;3.08;1.80;;;19.60;83.00;;;;;;6274803;22;20007;-76
2022/08/18 02:22:43;;;;;;;2.03;1.50;;;19.60;83.00;;;;;;6274884;22;20008;-76
2022/08/18 02:25:11;;;;;;;1.48;1.38;;;19.50;83.00;;;;;;6275033;22;20029;-76
2022/08/18 02:27:37;;;;;;;1.48;1.27;;;19.50;83.00;;;;;;6222262;22;20031;-76
2022/08/18 02:30:07;;;;;;;1.50;1.40;;;19.50;83.10;;;;;;6281295;22;20091;-76
2022/08/18 02:32:33;;;;;;;1.55;1.25;;;19.50;83.10;;;;;;6255570;22;20491;-76
2022/08/18 02:34:59;;;;;;;1.52;1.20;;;19.50;83.10;;;;;;6276832;22;20447;-77
2022/08/18 02:37:25;;;;;;;1.30;1.08;;;19.50;83.10;;;;;;6251094;22;20007;-76
2022/08/18 02:39:51;;;;;;;1.30;1.20;;;19.50;83.10;;;;;;6276509;22;20511;-76
2022/08/18 02:42:17;;;;;;;1.50;1.33;;;19.50;83.10;;;;;;6276647;22;20062;-77
2022/08/18 02:44:43;;;;;;;1.30;1.20;;;19.50;83.10;;;;;;6243714;22;20436;-76
2022/08/18 02:47:09;;;;;;;1.65;1.30;;;19.50;83.00;;;;;;6250171;22;20018;-76
2022/08/18 02:49:35;;;;;;;1.38;1.27;;;19.40;82.90;;;;;;6248696;22;20134;-76
2022/08/18 02:52:02;;;;;;;1.75;1.42;;;19.50;83.00;;;;;;6274746;22;20007;-76
2022/08/18 02:54:27;;;;;;;1.55;1.38;;;19.50;83.00;;;;;;6275423;22;20012;-76
2022/08/18 02:56:55;;;;;;;2.47;1.63;;;19.50;82.90;;;;;;6275019;22;20306;-76
2022/08/18 02:59:24;;;;;;;2.75;1.83;;;19.50;82.90;;;;;;6274750;22;20459;-77
2022/08/18 03:01:52;;;;;;;1.48;1.38;;;19.40;82.80;;;;;;6243676;22;20007;-76
2022/08/18 03:04:22;;;;;;;1.35;1.25;;;19.40;82.90;;;;;;6275199;22;20004;-76
2022/08/18 03:06:48;;;;;;;1.40;1.30;;;19.40;82.90;;;;;;6274655;22;20004;-76
2022/08/18 03:09:16;;;;;;;1.40;1.30;;;19.40;83.00;;;;;;6247782;22;20010;-76
2022/08/18 03:11:43;;;;;;;1.95;1.50;;;19.30;82.90;;;;;;6274729;22;20011;-76
2022/08/18 03:14:08;;;;;;;1.55;1.17;;;19.30;83.00;;;;;;6274769;22;20014;-76
2022/08/18 03:16:39;;;;;;;1.30;1.08;;;19.40;83.00;;;;;;6275534;22;19999;-76
2022/08/18 03:19:05;;;;;;;1.08;1.02;;;19.30;82.90;;;;;;6247975;22;20004;-76
2022/08/18 03:21:34;;;;;;;2.30;1.52;;;19.30;82.90;;;;;;6278763;22;20004;-76
2022/08/18 03:24:01;;;;;;;1.50;1.40;;;19.30;82.90;;;;;;6225922;22;20098;-76
2022/08/18 03:26:28;;;;;;;1.48;1.30;;;19.30;82.90;;;;;;6275525;22;20076;-76
2022/08/18 03:28:55;;;;;;;1.30;1.13;;;19.30;82.90;;;;;;6247122;22;20126;-76
2022/08/18 03:31:23;;;;;;;1.10;1.00;;;19.40;82.90;;;;;;6275151;22;20427;-76
2022/08/18 03:33:50;;;;;;;1.50;1.10;;;19.40;82.80;;;;;;6274231;22;20058;-76
2022/08/18 03:36:19;;;;;;;1.15;0.90;;;19.40;82.70;;;;;;6247386;22;20505;-75
2022/08/18 03:38:46;;;;;;;1.10;1.00;;;19.40;82.70;;;;;;6274378;22;20090;-76
2022/08/18 03:41:15;;;;;;;1.17;1.00;;;19.50;82.70;;;;;;6247418;22;20015;-76
2022/08/18 03:43:41;;;;;;;0.95;0.90;;;19.40;82.70;;;;;;6274895;22;20012;-76
2022/08/18 03:46:09;;;;;;;2.05;1.35;;;19.40;82.70;;;;;;6274491;22;20069;-76
2022/08/18 03:48:38;;;;;;;1.15;1.05;;;19.40;82.70;;;;;;6273516;22;20018;-76
2022/08/18 03:51:07;;;;;;;2.20;1.40;;;19.40;82.70;;;;;;6274982;22;20008;-76
2022/08/18 03:53:35;;;;;;;1.83;1.20;;;19.40;82.70;;;;;;6274846;22;20007;-76
2022/08/18 03:56:05;;;;;;;1.20;1.00;;;19.40;82.70;;;;;;6274257;22;20008;-76
2022/08/18 03:58:30;;;;;;;0.90;0.90;;;19.40;82.60;;;;;;6274431;22;20004;-76
2022/08/18 04:00:56;;;;;;;2.05;1.10;;;19.40;82.60;;;;;;6274424;22;20011;-76
2022/08/18 04:03:22;;;;;;;1.40;1.30;;;19.50;82.60;;;;;;6274600;22;20004;-76
2022/08/18 04:05:47;;;;;;;1.75;1.20;;;19.40;82.50;;;;;;6247705;22;20038;-76
2022/08/18 04:08:13;;;;;;;1.20;1.10;;;19.40;82.50;;;;;;6247562;22;20000;-76
2022/08/18 04:10:42;;;;;;;1.63;1.20;;;19.40;82.40;;;;;;6246292;22;20061;-76
2022/08/18 04:13:08;;;;;;;1.60;1.27;;;19.40;82.40;;;;;;6275012;22;20004;-76
2022/08/18 04:15:33;;;;;;;0.93;0.90;;;19.40;82.40;;;;;;6248240;22;20073;-76
2022/08/18 04:18:03;;;;;;;1.10;1.00;;;19.40;82.40;;;;;;6247394;22;20156;-76
2022/08/18 04:20:32;;;;;;;2.13;1.45;;;19.40;82.50;;;;;;6248495;22;20011;-76
2022/08/18 04:22:58;;;;;;;1.77;1.20;;;19.40;82.60;;;;;;6274443;22;20024;-76
2022/08/18 04:25:25;;;;;;;1.95;1.30;;;19.40;82.50;;;;;;6247933;22;20104;-76
2022/08/18 04:27:56;;;;;;;1.17;1.00;;;19.40;82.50;;;;;;6248456;22;20016;-76
2022/08/18 04:30:22;;;;;;;;;;;19.40;82.50;;;;;;6275109;22;20458;-76
2022/08/18 04:32:49;;;;;;;1.05;0.95;;;19.40;82.40;;;;;;6274070;22;19911;-76
2022/08/18 04:35:14;;;;;;;0.80;0.80;;;19.40;82.40;;;;;;6274675;22;20011;-76
2022/08/18 04:37:42;;;;;;;1.65;1.27;;;19.40;82.30;;;;;;6274468;22;20008;-76
2022/08/18 04:40:09;;;;;;;1.10;1.00;;;19.30;82.30;;;;;;6247909;22;20004;-76
2022/08/18 04:42:36;;;;;;;1.77;0.90;;;19.50;82.40;;;;;;6219161;22;20016;-75
2022/08/18 04:45:02;;;;;;;1.77;1.23;;;19.40;82.40;;;;;;6273863;22;20049;-76
2022/08/18 04:47:28;;;;;;;1.45;1.30;;;19.40;82.40;;;;;;6243691;22;20015;-76
2022/08/18 04:49:54;;;;;;;1.80;1.45;;;19.40;82.40;;;;;;6274384;22;20385;-76
2022/08/18 04:54:56;;;;;;;1.80;1.38;;;19.40;82.40;;;;;;6248496;22;20008;-76
2022/08/18 04:57:22;;;;;;;1.95;1.45;;;19.40;83.10;;;;;;6274108;22;20074;-76
2022/08/18 04:59:50;;;;;;;2.13;1.52;;;19.40;82.40;;;;;;6275062;22;19996;-76
2022/08/18 05:02:18;;;;;;;1.58;1.20;;;19.40;82.40;;;;;;6249277;22;20003;-76
2022/08/18 05:04:47;;;;;;;2.33;1.73;;;19.40;82.50;;;;;;6275471;22;20004;-76
2022/08/18 05:07:15;;;;;;;2.65;2.10;;;19.40;82.50;;;;;;6276275;22;20074;-76
2022/08/18 05:09:42;;;;;;;1.77;1.58;;;19.40;82.50;;;;;;6248601;22;20035;-76
2022/08/18 05:12:12;;;;;;;2.88;1.95;;;19.40;82.50;;;;;;6248986;22;20453;-76
2022/08/18 05:14:38;;;;;;;1.75;1.55;;;19.40;82.60;;;;;;6275653;22;20053;-76
2022/08/18 05:17:04;;;;;;;2.88;1.83;;;19.30;82.50;;;;;;6223112;22;20010;-76
2022/08/18 05:19:30;;;;;;;3.80;2.10;;;19.40;82.60;;;;;;6248465;22;20011;-76
2022/08/18 05:21:58;;;;;;;2.30;1.80;;;19.40;82.60;;;;;;6276177;22;20038;-76
2022/08/18 05:24:26;;;;;;;2.20;1.42;;;19.40;82.70;;;;;;6276164;22;20057;-76
2022/08/18 05:26:52;;;;;;;1.98;1.33;;;19.40;82.70;;;;;;6275922;22;20014;-76
2022/08/18 05:29:20;;;;;;;1.70;1.48;;;19.40;82.70;;;;;;6275373;22;20010;-76
2022/08/18 05:31:48;;;;;;;1.50;1.40;;;19.50;82.80;;;;;;6275361;22;20079;-76
2022/08/18 05:34:15;;;;;;;2.40;1.60;;;19.40;82.70;;;;;;6248579;22;20004;-76
2022/08/18 05:37:00;;;;;;;2.10;1.67;;;19.50;82.80;;;;;;6248688;22;20019;-76
2022/08/18 05:39:38;;;;;;;2.03;1.73;;;19.40;82.80;;;;;;6248547;22;20439;-76
2022/08/18 05:42:16;;;;;;;2.60;1.63;;;19.50;82.80;;;;;;6247823;22;20008;-76
2022/08/18 05:44:46;;;;;;;1.83;1.40;;;19.50;82.80;;;;;;6248930;22;20484;-76
2022/08/18 05:47:16;;;;;;;1.40;1.30;;;19.50;82.80;;;;;;6275520;22;20011;-76
2022/08/18 05:49:45;;;;;;;1.45;1.30;;;19.60;82.80;;;;;;6276101;22;20031;-76
2022/08/18 05:52:24;;;;;;;2.20;1.15;;;19.50;82.70;;;;;;6276154;22;20031;-77
2022/08/18 05:57:50;;;;;;;1.20;1.00;;;19.60;82.70;;;;;;6251952;22;20015;-76
2022/08/18 06:00:17;;;;;;;;;;;19.70;82.70;;;;;;6250430;22;20027;-76
2022/08/18 06:02:50;;;;;;;1.35;1.20;;;19.70;82.50;;;;;;6275332;22;20320;-76
2022/08/18 06:05:26;;;;;;;0.93;0.90;;;19.70;82.40;;;;;;6246686;22;20043;-76
2022/08/18 06:07:58;;;;;;;2.55;1.00;;;19.80;82.40;;;;;;6247806;22;20050;-76
2022/08/18 06:10:25;;;;;;;0.70;0.70;;;19.70;82.30;;;;;;6275371;22;20439;-76
2022/08/18 06:12:53;;;;;;;1.00;0.80;;;19.80;82.30;;;;;;6247881;22;20034;-76
2022/08/18 06:15:36;;;;;;;0.80;0.80;;;19.90;82.40;;;;;;6275373;22;20007;-76
2022/08/18 06:18:18;;;;;;;0.80;0.80;;;19.90;82.30;;;;;;6275851;22;20007;-76
2022/08/18 06:21:13;;;;;;;1.90;1.25;;;19.80;82.30;;;;;;6221800;22;20306;-77
2022/08/18 06:24:01;;;;;;;1.00;0.90;;;19.90;82.20;;;;;;6275339;22;20015;-76
2022/08/18 06:26:59;;;;;;;1.33;0.88;;;20.00;82.20;;;;;;6275336;22;20011;-76
2022/08/18 06:29:51;;;;;;;1.33;1.00;;;20.00;82.10;;;;;;6248043;22;20015;-76
2022/08/18 06:32:33;;;;;;;1.25;0.90;;;20.10;82.10;;;;;;6274998;22;20016;-76
2022/08/18 06:35:32;;;;;;;0.88;0.82;;;20.20;82.00;;;;;;6278676;22;20004;-76
2022/08/18 06:38:37;;;;;;;1.40;1.05;;;20.20;81.90;;;;;;6277979;22;20004;-76
2022/08/18 06:41:14;;;;;;;2.05;1.00;;;20.30;81.70;;;;;;6248197;22;20004;-76
2022/08/18 06:43:58;;;;;;;0.98;0.85;;;20.30;81.60;;;;;;6275182;22;19999;-76
2022/08/18 06:46:36;;;;;;;1.13;1.05;;;20.40;81.60;;;;;;6248297;22;20029;-76
2022/08/18 06:49:06;;;;;;;0.93;0.93;;;20.40;81.50;;;;;;6224185;22;20004;-76
2022/08/18 06:51:32;;;;;;;1.67;1.27;;;20.50;81.50;;;;;;6248879;22;20004;-76
2022/08/18 06:54:25;;;;;;;2.38;1.27;;;20.50;81.40;;;;;;6248084;22;20073;-76
2022/08/18 06:56:53;;;;;;;1.67;1.10;;;20.50;81.40;;;;;;6275602;22;20431;-77
2022/08/18 06:59:26;;;;;;;1.10;1.00;;;20.40;81.30;;;;;;6269467;22;20004;-76
2022/08/18 07:01:59;;;;;;;2.03;1.30;;;20.50;81.40;;;;;;6275483;22;20007;-76
2022/08/18 07:04:35;;;;;;;1.70;1.25;;;20.50;81.30;;;;;;6274948;22;20054;-76
2022/08/18 07:07:17;;;;;;;1.80;1.40;;;20.60;81.20;;;;;;6275698;22;20435;-77
2022/08/18 07:09:43;;;;;;;1.23;1.13;;;20.60;81.20;;;;;;6274946;22;20923;-75
2022/08/18 07:12:17;;;;;;;1.40;1.30;;;20.70;81.20;;;;;;6275060;22;20083;-75
2022/08/18 07:14:49;;;;;;;1.17;1.02;;;20.70;81.00;;;;;;6271886;22;20008;-76
2022/08/18 07:17:24;;;;;;;0.90;0.90;;;20.80;81.10;;;;;;6222655;22;20357;-75
2022/08/18 07:19:57;;;;;;;1.10;1.00;;;20.80;80.90;;;;;;6272340;22;20008;-75
2022/08/18 07:22:23;;;;;;;1.20;1.10;;;20.80;80.80;;;;;;6245379;22;20032;-75
2022/08/18 07:24:53;;;;;;;2.15;1.23;;;20.90;80.80;;;;;;6248799;22;20065;-76
2022/08/18 07:27:39;;;;;;;1.58;1.35;;;20.90;80.60;;;;;;6222709;22;20011;-76
2022/08/18 07:30:09;;;;;;;1.20;1.10;;;21.00;80.70;;;;;;6244566;22;20086;-75
2022/08/18 07:32:48;;;;;;;1.30;1.08;;;21.00;80.60;;;;;;6248155;22;20015;-75
2022/08/18 07:35:18;;;;;;;1.00;0.85;;;21.00;80.60;;;;;;6274572;22;20000;-76
2022/08/18 07:38:07;;;;;;;1.27;1.17;;;21.00;80.60;;;;;;6275551;22;20049;-75
2022/08/18 07:40:47;;;;;;;0.80;0.80;;;21.00;80.50;;;;;;6274801;22;20423;-75
2022/08/18 07:43:46;;;;;;;0.93;0.80;;;21.10;80.50;;;;;;6248553;22;20007;-75
2022/08/18 07:46:20;;;;;;;0.93;0.85;;;21.10;80.40;;;;;;6225549;22;20019;-76
2022/08/18 07:48:46;;;;;;;0.85;0.70;;;21.20;80.30;;;;;;6275257;22;20110;-75
2022/08/18 07:51:28;;;;;;;2.10;1.15;;;21.30;80.20;;;;;;6275434;22;20035;-76
2022/08/18 07:54:06;;;;;;;1.05;0.95;;;21.40;79.90;;;;;;6248556;22;20011;-75
2022/08/18 07:56:44;;;;;;;1.70;1.00;;;21.50;79.70;;;;;;6248127;22;20139;-75
2022/08/18 07:59:50;;;;;;;0.85;0.85;;;21.70;79.60;;;;;;6274766;22;20075;-75
2022/08/18 08:02:47;;;;;;;1.40;1.27;;;21.80;79.20;;;;;;6256308;22;20012;-75
2022/08/18 08:05:40;;;;;;;1.02;0.93;;;21.80;78.80;;;;;;6274442;22;20019;-75
2022/08/18 08:08:21;;;;;;;1.05;0.95;;;21.90;78.80;;;;;;6253623;22;20007;-75
2022/08/18 08:11:04;;;;;;;0.77;0.77;;;22.10;78.60;;;;;;6247740;22;20371;-75
2022/08/18 08:13:53;;;;;;;1.58;0.90;;;22.20;78.40;;;;;;6275111;22;20015;-75
2022/08/18 08:16:39;;;;;;;0.70;0.70;;;22.20;78.10;;;;;;6274422;22;20305;-75
2022/08/18 08:19:40;;;;;;;1.15;0.90;;;22.30;78.10;;;;;;6274386;22;20081;-75
2022/08/18 08:22:20;;;;;;;0.75;0.75;;;22.40;77.90;;;;;;6274217;22;20042;-75
2022/08/18 08:25:02;;;;;;;1.47;1.20;;;22.50;77.80;;;;;;6248173;22;19996;-75
2022/08/18 08:27:59;;;;;;;1.10;1.00;;;22.60;77.70;;;;;;6274407;22;20004;-75
2022/08/18 08:30:30;;;;;;;2.03;1.00;;;22.60;77.60;;;;;;6274999;22;20052;-75
2022/08/18 08:33:17;;;;;;;1.30;1.00;;;22.60;77.60;;;;;;6270873;22;20035;-75
2022/08/18 08:35:52;;;;;;;0.85;0.82;;;22.60;77.80;;;;;;6245801;22;20049;-75
2022/08/18 08:38:25;;;;;;;0.85;0.85;;;22.80;77.60;;;;;;6248622;22;20125;-75
2022/08/18 08:41:14;;;;;;;0.82;0.82;;;23.10;77.20;;;;;;6246137;22;20044;-75
2022/08/18 08:43:46;;;;;;;1.23;1.02;;;23.50;76.50;;;;;;6248660;22;20011;-75
2022/08/18 08:46:18;;;;;;;0.90;0.90;;;23.70;75.80;;;;;;6248244;22;20110;-75
2022/08/18 08:48:51;;;;;;;1.15;0.88;;;23.90;75.30;;;;;;6272515;22;20008;-75
2022/08/18 08:51:37;;;;;;;1.00;0.88;;;24.00;75.10;;;;;;6221726;22;20382;-75
2022/08/18 08:54:18;;;;;;;1.00;0.90;;;23.90;75.00;;;;;;6275518;22;20090;-75
2022/08/18 08:56:48;;;;;;;0.80;0.80;;;23.90;75.40;;;;;;6249051;22;20421;-75
2022/08/18 08:59:17;;;;;;;0.98;0.90;;;23.90;75.50;;;;;;6248642;22;20004;-75
2022/08/18 09:02:12;;;;;;;0.70;0.70;;;23.90;75.60;;;;;;6248361;22;20495;-75
2022/08/18 09:04:51;;;;;;;0.77;0.77;;;23.80;75.90;;;;;;6255200;22;20446;-75
2022/08/18 09:07:41;;;;;;;0.90;0.90;;;23.70;76.10;;;;;;6250035;22;20018;-75
2022/08/18 09:10:48;;;;;;;0.82;0.70;;;23.60;76.10;;;;;;6270023;22;20007;-76
2022/08/18 09:13:52;;;;;;;0.70;0.70;;;23.50;76.40;;;;;;6275600;22;20081;-75
2022/08/18 09:16:31;;;;;;;0.70;0.70;;;23.50;76.50;;;;;;6253567;22;20011;-75
2022/08/18 09:19:23;;;;;;;1.02;1.00;;;23.70;76.30;;;;;;6275466;22;20008;-75
2022/08/18 09:22:11;;;;;;;0.80;0.80;;;23.90;75.60;;;;;;6275490;22;20024;-75
2022/08/18 09:24:54;;;;;;;1.95;1.10;;;24.10;75.10;;;;;;6275878;22;20420;-75
2022/08/18 09:27:40;;;;;;;1.23;0.90;;;24.30;74.50;;;;;;6247641;22;20367;-75
2022/08/18 09:30:27;;;;;;;0.90;0.90;;;24.60;74.20;;;;;;6248604;22;20486;-75
2022/08/18 09:33:13;;;;;;;0.75;0.70;;;24.80;73.80;;;;;;6247802;22;20444;-75
2022/08/18 09:35:53;;;;;;;1.20;1.00;;;24.90;73.40;;;;;;6248456;22;20057;-75
2022/08/18 09:44:09;;;;;;;1.10;1.08;;;25.10;73.20;;;;;;6275469;22;20517;-75
2022/08/18 09:46:53;;;;;;;0.80;0.80;;;25.40;72.70;;;;;;6272324;22;20488;-75
2022/08/18 09:49:39;;;;;;;1.20;0.90;;;25.30;72.30;;;;;;6275426;22;20008;-75
2022/08/18 09:52:45;;;;;;;1.00;1.00;;;25.20;72.60;;;;;;6275997;22;20011;-75
2022/08/18 09:55:44;;;;;;;0.98;0.88;;;25.00;73.10;;;;;;6257111;22;20012;-75
2022/08/18 09:58:40;;;;;;;1.02;0.80;;;24.80;73.70;;;;;;6253665;22;20035;-75
2022/08/18 10:01:35;;;;;;;0.90;0.90;;;24.90;73.40;;;;;;6275201;22;20003;-75
2022/08/18 10:04:18;;;;;;;0.70;0.70;;;25.20;73.10;;;;;;6275326;22;20019;-75
2022/08/18 10:06:47;;;;;;;0.80;0.80;;;25.40;72.40;;;;;;6275864;22;20065;-75
2022/08/18 10:09:31;;;;;;;0.90;0.90;;;25.50;72.10;;;;;;6247127;22;20023;-75
2022/08/18 10:12:15;;;;;;;0.82;0.82;;;25.50;72.00;;;;;;6275897;22;20002;-75
2022/08/18 10:15:01;;;;;;;1.10;0.90;;;25.40;71.90;;;;;;6275859;22;20022;-75
2022/08/18 10:17:45;;;;;;;0.85;0.85;;;25.40;72.20;;;;;;6225007;22;20325;-76
2022/08/18 10:20:38;;;;;;;0.90;0.80;;;25.20;72.20;;;;;;6248274;22;20329;-75
2022/08/18 10:23:06;;;;;;;0.93;0.82;;;25.10;72.40;;;;;;6275215;22;20070;-75
2022/08/18 10:25:38;;;;;;;1.10;0.90;;;25.00;72.70;;;;;;6247278;22;20455;-75
2022/08/18 10:28:08;;;;;;;0.80;0.80;;;24.90;72.90;;;;;;6275812;22;20011;-75
2022/08/18 10:30:46;;;;;;;0.80;0.80;;;24.90;73.00;;;;;;6248857;22;20450;-74
2022/08/18 10:33:36;;;;;;;0.77;0.77;;;24.90;72.90;;;;;;6248281;22;20098;-75
2022/08/18 10:36:02;;;;;;;0.70;0.70;;;25.00;72.70;;;;;;6274931;22;20007;-75
2022/08/18 10:38:40;;;;;;;0.70;0.70;;;25.10;72.50;;;;;;6275511;22;20000;-75
2022/08/18 10:41:29;;;;;;;0.90;0.90;;;25.30;72.20;;;;;;6247804;22;20003;-75
2022/08/18 10:43:56;;;;;;;0.75;0.75;;;25.20;71.90;;;;;;6275044;22;20011;-75
2022/08/18 10:46:27;;;;;;;0.82;0.70;;;25.20;72.00;;;;;;6247892;22;20015;-75
2022/08/18 10:49:05;;;;;;;0.70;0.70;;;25.20;71.90;;;;;;6275260;22;20057;-75
2022/08/18 10:51:59;;;;;;;0.70;0.70;;;25.20;71.90;;;;;;6274789;22;20011;-75
2022/08/18 10:54:58;;;;;;;0.77;0.77;;;25.20;71.70;;;;;;6274968;22;20061;-75
2022/08/18 10:57:35;;;;;;;0.77;0.77;;;25.30;71.50;;;;;;6255268;22;20004;-75
2022/08/18 11:00:12;;;;;;;1.65;1.08;;;25.40;71.30;;;;;;6274865;22;20008;-75
2022/08/18 11:02:58;;;;;;;0.85;0.85;;;25.60;71.00;;;;;;6248678;22;20080;-75
2022/08/18 11:05:26;;;;;;;0.70;0.70;;;25.60;70.70;;;;;;6247847;22;20003;-75
2022/08/18 11:07:58;;;;;;;0.80;0.80;;;25.70;70.80;;;;;;6271731;22;20004;-75
2022/08/18 11:10:46;;;;;;;1.00;0.90;;;25.70;70.60;;;;;;6222172;22;20008;-75
2022/08/18 11:13:33;;;;;;;0.90;0.90;;;25.70;70.60;;;;;;6274719;22;20054;-75
2022/08/18 11:16:33;;;;;;;0.70;0.70;;;25.60;70.80;;;;;;6243909;22;20018;-75
2022/08/18 11:19:10;;;;;;;0.98;0.90;;;25.50;70.90;;;;;;6248788;22;20014;-75
2022/08/18 11:21:42;;;;;;;0.70;0.70;;;25.50;71.20;;;;;;6246550;22;20008;-75
2022/08/18 11:24:15;;;;;;;1.10;1.00;;;25.40;71.20;;;;;;6275075;22;20008;-75
2022/08/18 11:26:46;;;;;;;0.80;0.80;;;25.40;71.30;;;;;;6274948;22;20043;-75
2022/08/18 11:29:27;;;;;;;0.93;0.88;;;25.40;71.40;;;;;;6276019;22;20016;-74
2022/08/18 11:31:58;;;;;;;0.90;0.90;;;25.30;71.30;;;;;;6275457;22;20012;-75
2022/08/18 11:34:30;;;;;;;1.20;1.10;;;25.30;71.40;;;;;;6274934;22;20014;-74
2022/08/18 11:37:00;;;;;;;0.88;0.88;;;25.30;71.40;;;;;;6274643;22;20048;-74
2022/08/18 11:39:27;;;;;;;1.17;1.00;;;25.40;71.40;;;;;;6274921;22;20012;-75
2022/08/18 11:41:54;;;;;;;0.98;0.98;;;25.40;71.10;;;;;;6274605;22;20502;-75
2022/08/18 11:44:24;;;;;;;0.90;0.90;;;25.50;70.80;;;;;;6274677;22;20004;-74
2022/08/18 11:46:56;;;;;;;0.77;0.77;;;25.50;70.60;;;;;;6275108;22;20035;-75
2022/08/18 11:49:31;;;;;;;0.88;0.88;;;25.60;70.60;;;;;;6245878;22;20012;-75
2022/08/18 11:52:01;;;;;;;0.90;0.90;;;25.60;70.40;;;;;;6274676;22;20007;-75
2022/08/18 11:54:43;;;;;;;0.85;0.85;;;25.70;70.20;;;;;;6274732;22;20011;-75
2022/08/18 11:57:30;;;;;;;1.10;1.00;;;25.80;70.00;;;;;;6275305;22;20087;-75
2022/08/18 11:59:56;;;;;;;0.70;0.70;;;25.80;70.00;;;;;;6274743;22;20011;-75
2022/08/18 12:02:24;;;;;;;1.05;1.00;;;25.70;70.10;;;;;;6247748;22;20042;-75
2022/08/18 12:04:53;;;;;;;1.02;0.93;;;25.70;70.20;;;;;;6274749;22;20007;-75
2022/08/18 12:07:30;;;;;;;0.80;0.80;;;25.60;70.30;;;;;;6248265;22;20137;-75
2022/08/18 12:10:11;;;;;;;0.70;0.70;;;25.50;70.30;;;;;;6274081;22;20018;-75
2022/08/18 12:12:46;;;;;;;;;;;25.40;70.60;;;;;;6275087;22;20019;-75
2022/08/18 12:15:26;;;;;;;0.70;0.70;;;25.30;70.90;;;;;;6274242;22;19907;-75
2022/08/18 12:17:52;;;;;;;0.88;0.88;;;25.20;71.00;;;;;;6274416;22;20004;-75
2022/08/18 12:20:19;;;;;;;0.95;0.90;;;25.10;71.20;;;;;;6274337;22;20033;-75
2022/08/18 12:22:45;;;;;;;0.88;0.70;;;25.00;71.50;;;;;;6246514;22;20024;-75
2022/08/18 12:25:13;;;;;;;0.80;0.80;;;24.80;71.70;;;;;;6275144;22;20042;-75
2022/08/18 12:27:39;;;;;;;0.95;0.88;;;24.80;72.00;;;;;;6247510;22;20321;-75
2022/08/18 12:30:08;;;;;;;0.95;0.95;;;24.60;72.10;;;;;;6244659;22;20119;-74
2022/08/18 12:32:35;;;;;;;0.70;0.70;;;24.50;72.40;;;;;;6274197;22;20482;-75
2022/08/18 12:35:03;;;;;;;0.75;0.75;;;24.40;72.50;;;;;;6274099;22;20039;-75
2022/08/18 12:37:29;;;;;;;0.70;0.70;;;24.30;72.70;;;;;;6247297;22;19995;-75
2022/08/18 12:39:57;;;;;;;1.10;1.00;;;24.30;72.90;;;;;;6274294;22;20008;-75
2022/08/18 12:42:23;;;;;;;0.73;0.73;;;24.20;72.90;;;;;;6274350;22;20007;-75
2022/08/18 12:44:50;;;;;;;0.90;0.90;;;24.20;73.10;;;;;;6274249;22;20004;-75
2022/08/18 12:47:20;;;;;;;0.90;0.90;;;24.20;73.00;;;;;;6274660;22;20004;-75
2022/08/18 12:49:46;;;;;;;0.90;0.90;;;24.20;72.80;;;;;;6271183;22;20061;-75
2022/08/18 12:52:12;;;;;;;0.77;0.77;;;24.20;72.70;;;;;;6245122;22;20253;-74
2022/08/18 12:54:39;;;;;;;0.95;0.88;;;24.20;72.70;;;;;;6244558;22;20004;-75
2022/08/18 12:57:09;;;;;;;1.45;1.10;;;24.20;72.60;;;;;;6274311;22;20007;-75
2022/08/18 12:59:35;;;;;;;0.82;0.82;;;24.20;72.50;;;;;;6273964;22;20007;-75
2022/08/18 13:02:01;;;;;;;0.90;0.90;;;24.20;72.40;;;;;;6274324;22;20008;-75
2022/08/18 13:04:27;;;;;;;0.90;0.90;;;24.20;72.20;;;;;;6274470;22;20014;-75
2022/08/18 13:06:56;;;;;;;0.93;0.93;;;24.20;72.00;;;;;;6273931;22;20007;-75
2022/08/18 13:09:22;;;;;;;0.80;0.80;;;24.30;71.90;;;;;;6274362;22;20004;-75
2022/08/18 13:11:49;;;;;;;0.80;0.80;;;24.30;71.70;;;;;;6274032;22;20007;-75
2022/08/18 13:14:18;;;;;;;0.80;0.80;;;24.30;71.60;;;;;;6274119;22;20008;-75
2022/08/18 13:16:44;;;;;;;0.80;0.80;;;24.40;71.50;;;;;;6274843;22;20037;-75
2022/08/18 13:19:13;;;;;;;1.23;1.13;;;24.40;71.30;;;;;;6268268;22;20004;-75
2022/08/18 13:21:40;;;;;;;0.70;0.70;;;24.40;71.50;;;;;;6275549;22;20028;-75
2022/08/18 13:24:06;;;;;;;0.88;0.80;;;24.30;71.10;;;;;;6275569;22;20016;-75
2022/08/18 13:26:35;;;;;;;0.88;0.88;;;24.50;71.10;;;;;;6275373;22;20016;-75
2022/08/18 13:29:02;;;;;;;1.15;0.90;;;24.40;71.00;;;;;;6275470;22;20008;-75
2022/08/18 13:31:30;;;;;;;1.08;0.98;;;24.40;70.90;;;;;;6275421;22;20066;-74
2022/08/18 13:33:57;;;;;;;1.00;0.90;;;24.40;70.70;;;;;;6275364;22;20046;-75
2022/08/18 13:36:25;;;;;;;1.08;0.80;;;24.40;70.50;;;;;;6248021;22;20003;-75